sensor_id;sensor_type;location;lat;lon;timestamp;pressure;altitude;pressure_sealevel;temperature;humidity
38400;BME280;24180;42.676;23.320;2023-05-23T00:01:34;94556.66;;;11.80;100.00
38400;BME280;24180;42.676;23.320;2023-05-23T00:04:02;94566.22;;;11.80;100.00
38400;BME280;24180;42.676;23.320;2023-05-23T00:06:28;94562.06;;;11.87;100.00
38400;BME280;24180;42.676;23.320;2023-05-23T00:08:53;94528.03;;;11.64;100.00
38400;BME280;24180;42.676;23.320;2023-05-23T00:11:19;94570.97;;;11.92;100.00
38400;BME280;24180;42.676;23.320;2023-05-23T00:13:48;94562.16;;;11.77;100.00
38400;BME280;24180;42.676;23.320;2023-05-23T00:16:15;94573.50;;;11.76;100.00
38400;BME280;24180;42.676;23.320;2023-05-23T00:18:41;94570.25;;;11.74;100.00
38400;BME280;24180;42.676;23.320;2023-05-23T00:21:07;94552.63;;;11.60;100.00
38400;BME280;24180;42.676;23.320;2023-05-23T00:23:34;94567.03;;;11.80;100.00
38400;BME280;24180;42.676;23.320;2023-05-23T00:25:59;94561.03;;;11.80;100.00
38400;BME280;24180;42.676;23.320;2023-05-23T00:28:25;94562.75;;;11.71;100.00
38400;BME280;24180;42.676;23.320;2023-05-23T00:30:50;94563.44;;;11.73;100.00
38400;BME280;24180;42.676;23.320;2023-05-23T00:33:16;94553.25;;;11.54;100.00
38400;BME280;24180;42.676;23.320;2023-05-23T00:35:42;94575.50;;;11.64;100.00
38400;BME280;24180;42.676;23.320;2023-05-23T00:38:07;94576.41;;;11.47;100.00
38400;BME280;24180;42.676;23.320;2023-05-23T00:40:33;94558.75;;;11.51;100.00
38400;BME280;24180;42.676;23.320;2023-05-23T00:43:00;94537.97;;;11.43;100.00
38400;BME280;24180;42.676;23.320;2023-05-23T00:45:26;94525.78;;;11.35;100.00
38400;BME280;24180;42.676;23.320;2023-05-23T00:47:51;94537.25;;;11.33;100.00
38400;BME280;24180;42.676;23.320;2023-05-23T00:50:17;94535.53;;;11.41;100.00
38400;BME280;24180;42.676;23.320;2023-05-23T00:52:44;94569.81;;;11.61;100.00
38400;BME280;24180;42.676;23.320;2023-05-23T00:55:12;94563.31;;;11.57;100.00
38400;BME280;24180;42.676;23.320;2023-05-23T00:57:39;94566.53;;;11.51;100.00
38400;BME280;24180;42.676;23.320;2023-05-23T01:00:09;94557.50;;;11.55;100.00
38400;BME280;24180;42.676;23.320;2023-05-23T01:02:42;94552.41;;;11.45;100.00
38400;BME280;24180;42.676;23.320;2023-05-23T01:05:13;94560.84;;;11.47;100.00
38400;BME280;24180;42.676;23.320;2023-05-23T01:07:42;94570.38;;;11.39;100.00
38400;BME280;24180;42.676;23.320;2023-05-23T01:10:08;94550.06;;;11.08;100.00
38400;BME280;24180;42.676;23.320;2023-05-23T01:15:20;94572.84;;;11.22;100.00
38400;BME280;24180;42.676;23.320;2023-05-23T01:20:30;94548.09;;;11.02;100.00
38400;BME280;24180;42.676;23.320;2023-05-23T01:23:09;94575.28;;;11.24;100.00
38400;BME280;24180;42.676;23.320;2023-05-23T01:28:27;94569.75;;;11.19;100.00
38400;BME280;24180;42.676;23.320;2023-05-23T01:30:57;94538.31;;;10.96;100.00
38400;BME280;24180;42.676;23.320;2023-05-23T01:33:24;94533.94;;;10.97;100.00
38400;BME280;24180;42.676;23.320;2023-05-23T01:35:50;94573.13;;;11.19;100.00
38400;BME280;24180;42.676;23.320;2023-05-23T01:38:16;94547.63;;;11.07;100.00
38400;BME280;24180;42.676;23.320;2023-05-23T01:40:42;94552.41;;;11.19;100.00
38400;BME280;24180;42.676;23.320;2023-05-23T01:43:07;94567.16;;;11.19;100.00
38400;BME280;24180;42.676;23.320;2023-05-23T01:45:33;94564.66;;;11.35;100.00
38400;BME280;24180;42.676;23.320;2023-05-23T01:47:59;94565.50;;;11.44;100.00
38400;BME280;24180;42.676;23.320;2023-05-23T01:50:26;94532.88;;;11.33;100.00
38400;BME280;24180;42.676;23.320;2023-05-23T01:52:52;94519.16;;;11.41;100.00
38400;BME280;24180;42.676;23.320;2023-05-23T01:55:19;94524.75;;;11.54;100.00
38400;BME280;24180;42.676;23.320;2023-05-23T01:57:49;94529.28;;;11.60;100.00
38400;BME280;24180;42.676;23.320;2023-05-23T02:00:15;94539.56;;;11.69;100.00
38400;BME280;24180;42.676;23.320;2023-05-23T02:02:41;94558.13;;;11.83;100.00
38400;BME280;24180;42.676;23.320;2023-05-23T02:05:06;94546.59;;;11.77;100.00
38400;BME280;24180;42.676;23.320;2023-05-23T02:07:33;94522.91;;;11.72;100.00
38400;BME280;24180;42.676;23.320;2023-05-23T02:09:59;94544.69;;;11.79;100.00
38400;BME280;24180;42.676;23.320;2023-05-23T02:12:24;94544.19;;;11.84;100.00
38400;BME280;24180;42.676;23.320;2023-05-23T02:14:49;94522.38;;;11.68;100.00
38400;BME280;24180;42.676;23.320;2023-05-23T02:17:18;94551.03;;;11.93;100.00
38400;BME280;24180;42.676;23.320;2023-05-23T02:19:43;94545.53;;;11.96;100.00
38400;BME280;24180;42.676;23.320;2023-05-23T02:22:09;94522.28;;;11.78;100.00
38400;BME280;24180;42.676;23.320;2023-05-23T02:24:34;94544.56;;;11.97;100.00
38400;BME280;24180;42.676;23.320;2023-05-23T02:26:59;94544.38;;;11.90;100.00
38400;BME280;24180;42.676;23.320;2023-05-23T02:29:25;94515.81;;;11.82;100.00
38400;BME280;24180;42.676;23.320;2023-05-23T02:31:50;94544.41;;;11.98;100.00
38400;BME280;24180;42.676;23.320;2023-05-23T02:34:16;94554.13;;;11.96;100.00
38400;BME280;24180;42.676;23.320;2023-05-23T02:36:41;94544.41;;;11.98;100.00
38400;BME280;24180;42.676;23.320;2023-05-23T02:39:06;94549.13;;;11.95;100.00
38400;BME280;24180;42.676;23.320;2023-05-23T02:41:32;94535.25;;;11.78;100.00
38400;BME280;24180;42.676;23.320;2023-05-23T02:43:58;94544.34;;;11.82;100.00
38400;BME280;24180;42.676;23.320;2023-05-23T02:46:23;94522.16;;;11.54;100.00
38400;BME280;24180;42.676;23.320;2023-05-23T02:48:49;94557.69;;;11.61;100.00
38400;BME280;24180;42.676;23.320;2023-05-23T02:51:15;94509.69;;;11.32;100.00
38400;BME280;24180;42.676;23.320;2023-05-23T02:53:40;94554.22;;;11.53;100.00
38400;BME280;24180;42.676;23.320;2023-05-23T02:56:06;94539.75;;;11.42;100.00
38400;BME280;24180;42.676;23.320;2023-05-23T02:58:33;94547.53;;;11.42;100.00
38400;BME280;24180;42.676;23.320;2023-05-23T03:01:01;94516.94;;;11.20;100.00
38400;BME280;24180;42.676;23.320;2023-05-23T03:03:26;94542.94;;;11.36;100.00
38400;BME280;24180;42.676;23.320;2023-05-23T03:05:53;94521.09;;;11.13;100.00
38400;BME280;24180;42.676;23.320;2023-05-23T03:08:18;94514.78;;;11.15;100.00
38400;BME280;24180;42.676;23.320;2023-05-23T03:10:44;94544.06;;;11.34;100.00
38400;BME280;24180;42.676;23.320;2023-05-23T03:13:10;94551.75;;;11.43;100.00
38400;BME280;24180;42.676;23.320;2023-05-23T03:15:35;94487.28;;;11.14;100.00
38400;BME280;24180;42.676;23.320;2023-05-23T03:18:01;94502.25;;;11.28;100.00
38400;BME280;24180;42.676;23.320;2023-05-23T03:20:26;94556.25;;;11.67;100.00
38400;BME280;24180;42.676;23.320;2023-05-23T03:22:52;94545.88;;;11.67;100.00
38400;BME280;24180;42.676;23.320;2023-05-23T03:25:17;94560.16;;;11.71;100.00
38400;BME280;24180;42.676;23.320;2023-05-23T03:27:43;94513.38;;;11.47;100.00
38400;BME280;24180;42.676;23.320;2023-05-23T03:30:09;94559.56;;;11.77;100.00
38400;BME280;24180;42.676;23.320;2023-05-23T03:32:34;94554.41;;;11.85;100.00
38400;BME280;24180;42.676;23.320;2023-05-23T03:35:00;94569.38;;;11.91;100.00
38400;BME280;24180;42.676;23.320;2023-05-23T03:37:25;94570.25;;;11.74;100.00
38400;BME280;24180;42.676;23.320;2023-05-23T03:39:51;94583.25;;;11.82;100.00
38400;BME280;24180;42.676;23.320;2023-05-23T03:42:17;94562.19;;;11.85;100.00
38400;BME280;24180;42.676;23.320;2023-05-23T03:44:42;94571.28;;;11.89;100.00
38400;BME280;24180;42.676;23.320;2023-05-23T03:47:08;94567.47;;;12.09;100.00
38400;BME280;24180;42.676;23.320;2023-05-23T03:49:33;94564.34;;;11.98;100.00
38400;BME280;24180;42.676;23.320;2023-05-23T03:51:59;94572.50;;;12.03;100.00
38400;BME280;24180;42.676;23.320;2023-05-23T03:54:24;94545.31;;;11.81;100.00
38400;BME280;24180;42.676;23.320;2023-05-23T03:56:50;94547.97;;;11.97;100.00
38400;BME280;24180;42.676;23.320;2023-05-23T03:59:17;94580.97;;;12.21;100.00
38400;BME280;24180;42.676;23.320;2023-05-23T04:01:43;94584.69;;;12.10;100.00
38400;BME280;24180;42.676;23.320;2023-05-23T04:04:08;94565.84;;;12.08;100.00
38400;BME280;24180;42.676;23.320;2023-05-23T04:06:33;94573.03;;;12.14;100.00
38400;BME280;24180;42.676;23.320;2023-05-23T04:08:59;94560.38;;;12.11;100.00
38400;BME280;24180;42.676;23.320;2023-05-23T04:11:25;94563.31;;;12.25;100.00
38400;BME280;24180;42.676;23.320;2023-05-23T04:13:50;94514.19;;;11.81;100.00
38400;BME280;24180;42.676;23.320;2023-05-23T04:16:16;94565.22;;;12.14;100.00
38400;BME280;24180;42.676;23.320;2023-05-23T04:18:41;94563.50;;;11.89;100.00
38400;BME280;24180;42.676;23.320;2023-05-23T04:21:07;94569.25;;;12.09;100.00
38400;BME280;24180;42.676;23.320;2023-05-23T04:23:33;94574.31;;;12.10;100.00
38400;BME280;24180;42.676;23.320;2023-05-23T04:25:58;94585.47;;;12.03;100.00
38400;BME280;24180;42.676;23.320;2023-05-23T04:28:25;94573.25;;;11.87;100.00
38400;BME280;24180;42.676;23.320;2023-05-23T04:30:51;94550.75;;;11.70;100.00
38400;BME280;24180;42.676;23.320;2023-05-23T04:33:17;94516.66;;;11.57;100.00
38400;BME280;24180;42.676;23.320;2023-05-23T04:35:43;94568.56;;;11.91;100.00
38400;BME280;24180;42.676;23.320;2023-05-23T04:38:08;94577.44;;;12.22;100.00
38400;BME280;24180;42.676;23.320;2023-05-23T04:40:34;94574.19;;;12.28;100.00
38400;BME280;24180;42.676;23.320;2023-05-23T04:43:00;94554.00;;;12.06;100.00
38400;BME280;24180;42.676;23.320;2023-05-23T04:45:25;94574.13;;;12.12;100.00
38400;BME280;24180;42.676;23.320;2023-05-23T04:47:51;94576.56;;;12.13;100.00
38400;BME280;24180;42.676;23.320;2023-05-23T04:50:19;94597.06;;;12.33;100.00
38400;BME280;24180;42.676;23.320;2023-05-23T04:52:46;94596.75;;;12.28;100.00
38400;BME280;24180;42.676;23.320;2023-05-23T04:55:11;94575.63;;;12.14;100.00
38400;BME280;24180;42.676;23.320;2023-05-23T04:57:37;94566.31;;;12.04;100.00
38400;BME280;24180;42.676;23.320;2023-05-23T05:00:03;94593.16;;;12.29;100.00
38400;BME280;24180;42.676;23.320;2023-05-23T05:02:37;94590.25;;;12.32;100.00
38400;BME280;24180;42.676;23.320;2023-05-23T05:05:03;94598.53;;;12.27;100.00
38400;BME280;24180;42.676;23.320;2023-05-23T05:07:29;94584.25;;;12.23;100.00
38400;BME280;24180;42.676;23.320;2023-05-23T05:09:55;94603.03;;;12.17;100.00
38400;BME280;24180;42.676;23.320;2023-05-23T05:12:20;94602.22;;;12.16;100.00
38400;BME280;24180;42.676;23.320;2023-05-23T05:14:46;94608.16;;;12.43;100.00
38400;BME280;24180;42.676;23.320;2023-05-23T05:17:11;94606.19;;;12.37;100.00
38400;BME280;24180;42.676;23.320;2023-05-23T05:19:37;94612.56;;;12.50;100.00
38400;BME280;24180;42.676;23.320;2023-05-23T05:22:02;94604.81;;;12.66;100.00
38400;BME280;24180;42.676;23.320;2023-05-23T05:24:28;94615.22;;;12.91;100.00
38400;BME280;24180;42.676;23.320;2023-05-23T05:26:53;94608.25;;;12.99;100.00
38400;BME280;24180;42.676;23.320;2023-05-23T05:29:19;94608.59;;;13.21;100.00
38400;BME280;24180;42.676;23.320;2023-05-23T05:31:45;94573.03;;;13.13;100.00
38400;BME280;24180;42.676;23.320;2023-05-23T05:34:11;94581.78;;;13.28;100.00
38400;BME280;24180;42.676;23.320;2023-05-23T05:36:37;94586.19;;;13.28;100.00
38400;BME280;24180;42.676;23.320;2023-05-23T05:39:10;94597.69;;;13.41;100.00
38400;BME280;24180;42.676;23.320;2023-05-23T05:41:35;94629.88;;;13.48;100.00
38400;BME280;24180;42.676;23.320;2023-05-23T05:44:00;94628.09;;;13.57;100.00
38400;BME280;24180;42.676;23.320;2023-05-23T05:46:26;94631.97;;;13.77;100.00
38400;BME280;24180;42.676;23.320;2023-05-23T05:48:51;94636.81;;;13.88;100.00
38400;BME280;24180;42.676;23.320;2023-05-23T05:51:17;94638.59;;;13.96;100.00
38400;BME280;24180;42.676;23.320;2023-05-23T05:53:42;94645.06;;;14.16;100.00
38400;BME280;24180;42.676;23.320;2023-05-23T05:56:07;94637.69;;;14.28;100.00
38400;BME280;24180;42.676;23.320;2023-05-23T05:58:33;94637.00;;;14.42;100.00
38400;BME280;24180;42.676;23.320;2023-05-23T06:00:58;94630.88;;;14.19;100.00
38400;BME280;24180;42.676;23.320;2023-05-23T06:03:24;94615.34;;;13.94;100.00
38400;BME280;24180;42.676;23.320;2023-05-23T06:05:51;94624.13;;;13.93;100.00
38400;BME280;24180;42.676;23.320;2023-05-23T06:08:16;94586.09;;;13.76;100.00
38400;BME280;24180;42.676;23.320;2023-05-23T06:10:41;94648.16;;;14.12;100.00
38400;BME280;24180;42.676;23.320;2023-05-23T06:13:07;94641.31;;;14.11;100.00
38400;BME280;24180;42.676;23.320;2023-05-23T06:15:32;94647.75;;;14.31;100.00
38400;BME280;24180;42.676;23.320;2023-05-23T06:17:58;94625.59;;;14.43;100.00
38400;BME280;24180;42.676;23.320;2023-05-23T06:20:23;94622.50;;;14.47;100.00
38400;BME280;24180;42.676;23.320;2023-05-23T06:22:48;94648.50;;;14.86;100.00
38400;BME280;24180;42.676;23.320;2023-05-23T06:25:14;94642.31;;;15.10;100.00
38400;BME280;24180;42.676;23.320;2023-05-23T06:27:39;94655.75;;;15.22;100.00
38400;BME280;24180;42.676;23.320;2023-05-23T06:30:05;94659.03;;;15.24;100.00
38400;BME280;24180;42.676;23.320;2023-05-23T06:32:31;94669.94;;;15.50;100.00
38400;BME280;24180;42.676;23.320;2023-05-23T06:34:56;94633.97;;;15.60;100.00
38400;BME280;24180;42.676;23.320;2023-05-23T06:37:22;94677.44;;;16.05;100.00
38400;BME280;24180;42.676;23.320;2023-05-23T06:39:47;94666.00;;;16.06;100.00
38400;BME280;24180;42.676;23.320;2023-05-23T06:42:14;94648.63;;;15.99;100.00
38400;BME280;24180;42.676;23.320;2023-05-23T06:44:39;94672.22;;;16.20;100.00
38400;BME280;24180;42.676;23.320;2023-05-23T06:47:05;94666.53;;;15.87;100.00
38400;BME280;24180;42.676;23.320;2023-05-23T06:49:30;94633.72;;;15.47;100.00
38400;BME280;24180;42.676;23.320;2023-05-23T06:51:55;94634.78;;;15.38;100.00
38400;BME280;24180;42.676;23.320;2023-05-23T06:54:21;94649.34;;;15.32;100.00
38400;BME280;24180;42.676;23.320;2023-05-23T06:56:46;94650.19;;;15.25;100.00
38400;BME280;24180;42.676;23.320;2023-05-23T06:59:12;94629.63;;;15.07;100.00
38400;BME280;24180;42.676;23.320;2023-05-23T07:01:37;94644.56;;;15.13;100.00
38400;BME280;24180;42.676;23.320;2023-05-23T07:04:03;94617.41;;;15.08;100.00
38400;BME280;24180;42.676;23.320;2023-05-23T07:06:29;94594.81;;;15.00;100.00
38400;BME280;24180;42.676;23.320;2023-05-23T07:08:55;94616.41;;;15.31;100.00
38400;BME280;24180;42.676;23.320;2023-05-23T07:11:20;94634.09;;;15.44;100.00
38400;BME280;24180;42.676;23.320;2023-05-23T07:13:46;94629.22;;;15.64;100.00
38400;BME280;24180;42.676;23.320;2023-05-23T07:16:12;94625.44;;;15.66;100.00
38400;BME280;24180;42.676;23.320;2023-05-23T07:18:37;94603.19;;;15.56;100.00
38400;BME280;24180;42.676;23.320;2023-05-23T07:21:03;94624.00;;;15.78;100.00
38400;BME280;24180;42.676;23.320;2023-05-23T07:23:31;94619.44;;;15.95;100.00
38400;BME280;24180;42.676;23.320;2023-05-23T07:25:58;94610.69;;;16.03;100.00
38400;BME280;24180;42.676;23.320;2023-05-23T07:28:24;94605.66;;;16.16;100.00
38400;BME280;24180;42.676;23.320;2023-05-23T07:30:49;94607.38;;;16.23;100.00
38400;BME280;24180;42.676;23.320;2023-05-23T07:33:15;94596.63;;;16.33;100.00
38400;BME280;24180;42.676;23.320;2023-05-23T07:35:40;94579.50;;;16.30;100.00
38400;BME280;24180;42.676;23.320;2023-05-23T07:38:06;94603.09;;;16.66;100.00
38400;BME280;24180;42.676;23.320;2023-05-23T07:40:31;94583.53;;;16.62;100.00
38400;BME280;24180;42.676;23.320;2023-05-23T07:42:57;94598.81;;;16.80;100.00
38400;BME280;24180;42.676;23.320;2023-05-23T07:45:24;94609.06;;;16.96;100.00
38400;BME280;24180;42.676;23.320;2023-05-23T07:47:51;94603.03;;;17.17;100.00
38400;BME280;24180;42.676;23.320;2023-05-23T07:50:17;94608.78;;;17.33;100.00
38400;BME280;24180;42.676;23.320;2023-05-23T07:52:43;94606.25;;;17.40;100.00
38400;BME280;24180;42.676;23.320;2023-05-23T07:55:08;94603.34;;;17.56;100.00
38400;BME280;24180;42.676;23.320;2023-05-23T07:57:34;94605.34;;;17.75;100.00
38400;BME280;24180;42.676;23.320;2023-05-23T07:59:59;94611.09;;;17.92;100.00
38400;BME280;24180;42.676;23.320;2023-05-23T08:02:25;94613.38;;;18.02;100.00
38400;BME280;24180;42.676;23.320;2023-05-23T08:04:50;94612.78;;;18.06;100.00
38400;BME280;24180;42.676;23.320;2023-05-23T08:07:17;94582.78;;;18.09;100.00
38400;BME280;24180;42.676;23.320;2023-05-23T08:09:43;94608.72;;;18.38;100.00
38400;BME280;24180;42.676;23.320;2023-05-23T08:12:08;94579.47;;;18.28;100.00
38400;BME280;24180;42.676;23.320;2023-05-23T08:14:34;94596.94;;;18.55;100.00
38400;BME280;24180;42.676;23.320;2023-05-23T08:17:00;94592.16;;;18.72;100.00
38400;BME280;24180;42.676;23.320;2023-05-23T08:19:25;94563.31;;;18.65;100.00
38400;BME280;24180;42.676;23.320;2023-05-23T08:21:51;94605.94;;;18.94;100.00
38400;BME280;24180;42.676;23.320;2023-05-23T08:24:20;94592.22;;;18.92;100.00
38400;BME280;24180;42.676;23.320;2023-05-23T08:26:46;94609.81;;;19.11;100.00
38400;BME280;24180;42.676;23.320;2023-05-23T08:29:12;94589.81;;;19.10;100.00
38400;BME280;24180;42.676;23.320;2023-05-23T08:31:38;94580.53;;;19.01;100.00
38400;BME280;24180;42.676;23.320;2023-05-23T08:34:03;94570.56;;;18.63;100.00
38400;BME280;24180;42.676;23.320;2023-05-23T08:36:29;94612.00;;;18.94;100.00
38400;BME280;24180;42.676;23.320;2023-05-23T08:38:56;94593.88;;;19.12;100.00
38400;BME280;24180;42.676;23.320;2023-05-23T08:41:23;94598.34;;;19.25;100.00
38400;BME280;24180;42.676;23.320;2023-05-23T08:43:49;94568.03;;;19.16;100.00
38400;BME280;24180;42.676;23.320;2023-05-23T08:46:15;94571.69;;;19.28;100.00
38400;BME280;24180;42.676;23.320;2023-05-23T08:48:41;94573.94;;;19.51;100.00
38400;BME280;24180;42.676;23.320;2023-05-23T08:51:08;94602.03;;;19.63;100.00
38400;BME280;24180;42.676;23.320;2023-05-23T08:53:37;94596.38;;;19.53;100.00
38400;BME280;24180;42.676;23.320;2023-05-23T08:56:04;94601.63;;;19.73;100.00
38400;BME280;24180;42.676;23.320;2023-05-23T08:58:30;94600.19;;;19.84;100.00
38400;BME280;24180;42.676;23.320;2023-05-23T09:00:57;94603.03;;;19.89;100.00
38400;BME280;24180;42.676;23.320;2023-05-23T09:03:25;94600.19;;;19.90;100.00
38400;BME280;24180;42.676;23.320;2023-05-23T09:05:55;94565.66;;;19.74;100.00
38400;BME280;24180;42.676;23.320;2023-05-23T09:08:22;94537.16;;;19.77;100.00
38400;BME280;24180;42.676;23.320;2023-05-23T09:10:49;94564.78;;;20.06;100.00
38400;BME280;24180;42.676;23.320;2023-05-23T09:13:15;94582.34;;;20.32;100.00
38400;BME280;24180;42.676;23.320;2023-05-23T09:18:32;94582.31;;;20.83;100.00
38400;BME280;24180;42.676;23.320;2023-05-23T09:21:00;94556.38;;;20.86;100.00
38400;BME280;24180;42.676;23.320;2023-05-23T09:23:29;94575.75;;;20.98;100.00
38400;BME280;24180;42.676;23.320;2023-05-23T09:25:54;94578.81;;;20.95;100.00
38400;BME280;24180;42.676;23.320;2023-05-23T09:28:20;94540.53;;;20.99;100.00
38400;BME280;24180;42.676;23.320;2023-05-23T09:30:45;94574.50;;;21.14;100.00
38400;BME280;24180;42.676;23.320;2023-05-23T09:33:13;94561.50;;;20.75;100.00
38400;BME280;24180;42.676;23.320;2023-05-23T09:35:43;94581.50;;;20.89;100.00
38400;BME280;24180;42.676;23.320;2023-05-23T09:38:09;94551.91;;;20.93;100.00
38400;BME280;24180;42.676;23.320;2023-05-23T09:40:34;94546.97;;;21.10;100.00
38400;BME280;24180;42.676;23.320;2023-05-23T09:43:03;94552.94;;;21.30;100.00
38400;BME280;24180;42.676;23.320;2023-05-23T09:45:30;94547.97;;;21.40;100.00
38400;BME280;24180;42.676;23.320;2023-05-23T09:47:56;94552.78;;;21.50;100.00
38400;BME280;24180;42.676;23.320;2023-05-23T09:50:22;94539.16;;;21.28;99.11
38400;BME280;24180;42.676;23.320;2023-05-23T09:52:48;94559.59;;;21.58;98.21
38400;BME280;24180;42.676;23.320;2023-05-23T09:55:15;94555.44;;;21.68;100.00
38400;BME280;24180;42.676;23.320;2023-05-23T09:57:42;94559.78;;;21.81;98.92
38400;BME280;24180;42.676;23.320;2023-05-23T10:00:08;94530.06;;;21.74;93.48
38400;BME280;24180;42.676;23.320;2023-05-23T10:03:11;94553.34;;;22.20;89.41
38400;BME280;24180;42.676;23.320;2023-05-23T10:05:44;94520.47;;;22.22;89.61
38400;BME280;24180;42.676;23.320;2023-05-23T10:08:17;94520.66;;;22.39;85.73
38400;BME280;24180;42.676;23.320;2023-05-23T10:13:18;94523.59;;;23.50;76.61
38400;BME280;24180;42.676;23.320;2023-05-23T10:15:44;94545.16;;;25.03;69.54
38400;BME280;24180;42.676;23.320;2023-05-23T10:18:16;94547.94;;;27.39;56.04
38400;BME280;24180;42.676;23.320;2023-05-23T10:20:46;94551.34;;;28.35;45.54
38400;BME280;24180;42.676;23.320;2023-05-23T10:23:14;94511.41;;;29.22;41.61
38400;BME280;24180;42.676;23.320;2023-05-23T10:25:41;94512.09;;;30.70;39.23
38400;BME280;24180;42.676;23.320;2023-05-23T10:28:08;94546.31;;;32.33;36.30
38400;BME280;24180;42.676;23.320;2023-05-23T10:30:34;94534.47;;;32.63;32.96
38400;BME280;24180;42.676;23.320;2023-05-23T10:33:01;94536.88;;;31.39;36.61
38400;BME280;24180;42.676;23.320;2023-05-23T10:41:27;94535.75;;;35.88;29.99
38400;BME280;24180;42.676;23.320;2023-05-23T10:44:06;94535.66;;;36.15;27.04
38400;BME280;24180;42.676;23.320;2023-05-23T10:46:53;94529.94;;;36.17;26.73
38400;BME280;24180;42.676;23.320;2023-05-23T10:49:57;94525.59;;;36.69;25.80
38400;BME280;24180;42.676;23.320;2023-05-23T10:52:25;94513.88;;;37.47;25.51
38400;BME280;24180;42.676;23.320;2023-05-23T10:54:54;94508.19;;;36.13;26.20
38400;BME280;24180;42.676;23.320;2023-05-23T10:57:25;94492.34;;;36.90;26.20
38400;BME280;24180;42.676;23.320;2023-05-23T10:59:53;94506.72;;;37.85;24.20
38400;BME280;24180;42.676;23.320;2023-05-23T11:02:24;94509.25;;;37.39;25.02
38400;BME280;24180;42.676;23.320;2023-05-23T11:05:27;94519.97;;;35.95;25.07
38400;BME280;24180;42.676;23.320;2023-05-23T11:13:21;94509.75;;;37.67;24.33
38400;BME280;24180;42.676;23.320;2023-05-23T11:15:48;94498.66;;;38.32;22.84
38400;BME280;24180;42.676;23.320;2023-05-23T11:18:33;94503.56;;;38.85;24.02
38400;BME280;24180;42.676;23.320;2023-05-23T11:20:59;94506.94;;;39.11;22.30
38400;BME280;24180;42.676;23.320;2023-05-23T11:23:39;94483.72;;;39.85;21.01
38400;BME280;24180;42.676;23.320;2023-05-23T11:26:28;94494.53;;;40.05;20.83
38400;BME280;24180;42.676;23.320;2023-05-23T11:28:54;94490.84;;;41.03;21.26
38400;BME280;24180;42.676;23.320;2023-05-23T11:31:20;94476.91;;;40.81;20.71
38400;BME280;24180;42.676;23.320;2023-05-23T11:33:49;94498.34;;;40.37;20.15
38400;BME280;24180;42.676;23.320;2023-05-23T11:36:15;94498.63;;;40.56;20.74
38400;BME280;24180;42.676;23.320;2023-05-23T11:38:41;94458.84;;;40.73;20.72
38400;BME280;24180;42.676;23.320;2023-05-23T11:41:06;94481.59;;;39.37;20.94
38400;BME280;24180;42.676;23.320;2023-05-23T11:43:32;94462.50;;;40.19;21.27
38400;BME280;24180;42.676;23.320;2023-05-23T11:46:06;94484.00;;;40.49;21.23
38400;BME280;24180;42.676;23.320;2023-05-23T11:48:32;94455.19;;;39.25;21.63
38400;BME280;24180;42.676;23.320;2023-05-23T11:50:57;94457.84;;;36.31;23.85
38400;BME280;24180;42.676;23.320;2023-05-23T11:53:26;94456.03;;;37.65;23.22
38400;BME280;24180;42.676;23.320;2023-05-23T11:55:57;94460.72;;;39.91;21.18
38400;BME280;24180;42.676;23.320;2023-05-23T11:58:28;94451.00;;;42.03;19.69
38400;BME280;24180;42.676;23.320;2023-05-23T12:01:04;94468.19;;;42.35;19.73
38400;BME280;24180;42.676;23.320;2023-05-23T12:03:31;94471.06;;;43.78;18.81
38400;BME280;24180;42.676;23.320;2023-05-23T12:05:57;94450.31;;;43.00;18.32
38400;BME280;24180;42.676;23.320;2023-05-23T12:08:23;94428.91;;;39.05;21.33
38400;BME280;24180;42.676;23.320;2023-05-23T12:10:53;94468.38;;;41.31;19.81
38400;BME280;24180;42.676;23.320;2023-05-23T12:13:23;94471.19;;;41.46;19.03
38400;BME280;24180;42.676;23.320;2023-05-23T12:15:53;94445.72;;;41.94;19.38
38400;BME280;24180;42.676;23.320;2023-05-23T12:18:19;94424.97;;;41.74;19.03
38400;BME280;24180;42.676;23.320;2023-05-23T12:20:47;94461.06;;;36.98;22.63
38400;BME280;24180;42.676;23.320;2023-05-23T12:23:23;94436.69;;;35.04;25.22
38400;BME280;24180;42.676;23.320;2023-05-23T12:25:52;94447.16;;;35.42;24.80
38400;BME280;24180;42.676;23.320;2023-05-23T12:28:19;94451.69;;;35.77;24.04
38400;BME280;24180;42.676;23.320;2023-05-23T12:30:44;94418.88;;;37.11;23.43
38400;BME280;24180;42.676;23.320;2023-05-23T12:33:10;94438.00;;;39.62;21.62
38400;BME280;24180;42.676;23.320;2023-05-23T12:35:36;94437.78;;;40.82;20.18
38400;BME280;24180;42.676;23.320;2023-05-23T12:38:05;94415.28;;;39.75;20.84
38400;BME280;24180;42.676;23.320;2023-05-23T12:40:34;94404.66;;;41.28;19.90
38400;BME280;24180;42.676;23.320;2023-05-23T12:43:00;94422.50;;;41.29;19.82
38400;BME280;24180;42.676;23.320;2023-05-23T12:45:33;94425.22;;;41.69;19.47
38400;BME280;24180;42.676;23.320;2023-05-23T12:48:04;94429.50;;;37.33;21.56
38400;BME280;24180;42.676;23.320;2023-05-23T12:50:30;94416.34;;;34.49;25.01
38400;BME280;24180;42.676;23.320;2023-05-23T12:52:55;94417.91;;;32.98;26.16
38400;BME280;24180;42.676;23.320;2023-05-23T12:55:21;94417.97;;;31.50;27.42
38400;BME280;24180;42.676;23.320;2023-05-23T12:57:47;94422.31;;;30.63;28.03
38400;BME280;24180;42.676;23.320;2023-05-23T13:00:12;94419.94;;;29.67;28.78
38400;BME280;24180;42.676;23.320;2023-05-23T13:02:38;94397.00;;;28.70;28.79
38400;BME280;24180;42.676;23.320;2023-05-23T13:05:04;94423.97;;;28.12;30.86
38400;BME280;24180;42.676;23.320;2023-05-23T13:07:30;94398.56;;;27.47;32.78